sensor_id;sensor_type;location;lat;lon;timestamp;temperature;humidity
20442;DHT22;10380;52.102;20.614;2022-07-10T00:01:58;14.50;99.90
20442;DHT22;10380;52.102;20.614;2022-07-10T00:04:26;14.40;99.90
20442;DHT22;10380;52.102;20.614;2022-07-10T00:06:53;14.40;99.90
20442;DHT22;10380;52.102;20.614;2022-07-10T00:09:22;14.30;99.90
20442;DHT22;10380;52.102;20.614;2022-07-10T00:11:49;14.30;99.90
20442;DHT22;10380;52.102;20.614;2022-07-10T00:14:16;14.20;99.90
20442;DHT22;10380;52.102;20.614;2022-07-10T00:16:44;14.20;99.90
20442;DHT22;10380;52.102;20.614;2022-07-10T00:19:11;14.20;99.90
20442;DHT22;10380;52.102;20.614;2022-07-10T00:21:38;14.20;99.90
20442;DHT22;10380;52.102;20.614;2022-07-10T00:24:05;14.20;99.90
20442;DHT22;10380;52.102;20.614;2022-07-10T00:26:32;14.20;99.90
20442;DHT22;10380;52.102;20.614;2022-07-10T00:28:59;14.20;99.90
20442;DHT22;10380;52.102;20.614;2022-07-10T00:31:26;14.20;99.90
20442;DHT22;10380;52.102;20.614;2022-07-10T00:33:53;14.20;99.90
20442;DHT22;10380;52.102;20.614;2022-07-10T00:36:20;14.10;99.90
20442;DHT22;10380;52.102;20.614;2022-07-10T00:38:47;14.10;99.90
20442;DHT22;10380;52.102;20.614;2022-07-10T00:41:14;14.10;99.90
20442;DHT22;10380;52.102;20.614;2022-07-10T00:43:57;14.10;99.90
20442;DHT22;10380;52.102;20.614;2022-07-10T00:46:26;14.10;99.90
20442;DHT22;10380;52.102;20.614;2022-07-10T00:48:54;14.00;99.90
20442;DHT22;10380;52.102;20.614;2022-07-10T00:51:26;13.90;99.90
20442;DHT22;10380;52.102;20.614;2022-07-10T00:53:53;13.90;99.90
20442;DHT22;10380;52.102;20.614;2022-07-10T00:56:23;13.90;99.90
20442;DHT22;10380;52.102;20.614;2022-07-10T00:58:51;13.90;99.90
20442;DHT22;10380;52.102;20.614;2022-07-10T01:01:20;13.90;99.90
20442;DHT22;10380;52.102;20.614;2022-07-10T01:03:49;13.90;99.90
20442;DHT22;10380;52.102;20.614;2022-07-10T01:06:17;13.90;99.90
20442;DHT22;10380;52.102;20.614;2022-07-10T01:08:45;13.80;99.90
20442;DHT22;10380;52.102;20.614;2022-07-10T01:11:13;13.80;99.90
20442;DHT22;10380;52.102;20.614;2022-07-10T01:13:40;13.80;99.90
20442;DHT22;10380;52.102;20.614;2022-07-10T01:16:08;13.80;99.90
20442;DHT22;10380;52.102;20.614;2022-07-10T01:18:35;13.70;99.90
20442;DHT22;10380;52.102;20.614;2022-07-10T01:21:02;13.70;99.90
20442;DHT22;10380;52.102;20.614;2022-07-10T01:23:31;13.60;99.90
20442;DHT22;10380;52.102;20.614;2022-07-10T01:25:58;13.70;99.90
20442;DHT22;10380;52.102;20.614;2022-07-10T01:28:26;13.60;99.90
20442;DHT22;10380;52.102;20.614;2022-07-10T01:30:54;13.60;99.90
20442;DHT22;10380;52.102;20.614;2022-07-10T01:33:22;13.70;99.90
20442;DHT22;10380;52.102;20.614;2022-07-10T01:35:49;13.70;99.90
20442;DHT22;10380;52.102;20.614;2022-07-10T01:38:16;13.70;99.90
20442;DHT22;10380;52.102;20.614;2022-07-10T01:40:44;13.70;99.90
20442;DHT22;10380;52.102;20.614;2022-07-10T01:43:10;13.70;99.90
20442;DHT22;10380;52.102;20.614;2022-07-10T01:45:37;13.70;99.90
20442;DHT22;10380;52.102;20.614;2022-07-10T01:48:05;13.80;99.90
20442;DHT22;10380;52.102;20.614;2022-07-10T01:50:32;13.80;99.90
20442;DHT22;10380;52.102;20.614;2022-07-10T01:52:59;13.80;99.90
20442;DHT22;10380;52.102;20.614;2022-07-10T01:55:26;13.90;99.90
20442;DHT22;10380;52.102;20.614;2022-07-10T01:57:53;13.90;99.90
20442;DHT22;10380;52.102;20.614;2022-07-10T02:00:21;13.90;99.90
20442;DHT22;10380;52.102;20.614;2022-07-10T02:02:48;13.90;99.90
20442;DHT22;10380;52.102;20.614;2022-07-10T02:05:35;13.90;99.90
20442;DHT22;10380;52.102;20.614;2022-07-10T02:08:02;13.80;99.90
20442;DHT22;10380;52.102;20.614;2022-07-10T02:10:31;13.80;99.90
20442;DHT22;10380;52.102;20.614;2022-07-10T02:12:58;13.80;99.90
20442;DHT22;10380;52.102;20.614;2022-07-10T02:15:25;13.80;99.90
20442;DHT22;10380;52.102;20.614;2022-07-10T02:17:52;13.80;99.90
20442;DHT22;10380;52.102;20.614;2022-07-10T02:20:20;13.80;99.90
20442;DHT22;10380;52.102;20.614;2022-07-10T02:22:48;13.80;99.90
20442;DHT22;10380;52.102;20.614;2022-07-10T02:25:14;13.80;99.90
20442;DHT22;10380;52.102;20.614;2022-07-10T02:27:42;13.80;99.90
20442;DHT22;10380;52.102;20.614;2022-07-10T02:30:09;13.80;99.90
20442;DHT22;10380;52.102;20.614;2022-07-10T02:32:36;13.80;99.90
20442;DHT22;10380;52.102;20.614;2022-07-10T02:35:03;13.80;99.90
20442;DHT22;10380;52.102;20.614;2022-07-10T02:37:30;13.80;99.90
20442;DHT22;10380;52.102;20.614;2022-07-10T02:39:58;13.80;99.90
20442;DHT22;10380;52.102;20.614;2022-07-10T02:42:25;13.80;99.90
20442;DHT22;10380;52.102;20.614;2022-07-10T02:44:54;13.80;99.90
20442;DHT22;10380;52.102;20.614;2022-07-10T02:47:23;13.90;99.90
20442;DHT22;10380;52.102;20.614;2022-07-10T02:49:51;13.90;99.90
20442;DHT22;10380;52.102;20.614;2022-07-10T02:52:19;13.80;99.90
20442;DHT22;10380;52.102;20.614;2022-07-10T02:54:46;13.80;99.90
20442;DHT22;10380;52.102;20.614;2022-07-10T02:57:13;13.80;99.90
20442;DHT22;10380;52.102;20.614;2022-07-10T02:59:40;13.80;99.90
20442;DHT22;10380;52.102;20.614;2022-07-10T03:02:07;13.80;99.90
20442;DHT22;10380;52.102;20.614;2022-07-10T03:04:34;13.80;99.90
20442;DHT22;10380;52.102;20.614;2022-07-10T03:07:02;13.80;99.90
20442;DHT22;10380;52.102;20.614;2022-07-10T03:09:30;13.90;99.90
20442;DHT22;10380;52.102;20.614;2022-07-10T03:11:59;13.90;99.90
20442;DHT22;10380;52.102;20.614;2022-07-10T03:14:26;14.00;99.90
20442;DHT22;10380;52.102;20.614;2022-07-10T03:16:53;14.00;99.90
20442;DHT22;10380;52.102;20.614;2022-07-10T03:19:20;14.10;99.90
20442;DHT22;10380;52.102;20.614;2022-07-10T03:21:47;14.10;99.90
20442;DHT22;10380;52.102;20.614;2022-07-10T03:24:14;14.20;99.90
20442;DHT22;10380;52.102;20.614;2022-07-10T03:26:41;14.30;99.90
20442;DHT22;10380;52.102;20.614;2022-07-10T03:29:08;14.30;99.90
20442;DHT22;10380;52.102;20.614;2022-07-10T03:31:36;14.30;99.90
20442;DHT22;10380;52.102;20.614;2022-07-10T03:34:03;14.40;99.90
20442;DHT22;10380;52.102;20.614;2022-07-10T03:36:30;14.50;99.90
20442;DHT22;10380;52.102;20.614;2022-07-10T03:38:57;14.60;99.90
20442;DHT22;10380;52.102;20.614;2022-07-10T03:41:24;14.60;99.90
20442;DHT22;10380;52.102;20.614;2022-07-10T03:43:51;14.70;99.90
20442;DHT22;10380;52.102;20.614;2022-07-10T03:46:18;14.80;99.90
20442;DHT22;10380;52.102;20.614;2022-07-10T03:48:45;14.80;99.90
20442;DHT22;10380;52.102;20.614;2022-07-10T03:51:12;14.90;99.90
20442;DHT22;10380;52.102;20.614;2022-07-10T03:53:39;14.90;99.90
20442;DHT22;10380;52.102;20.614;2022-07-10T03:56:07;14.90;99.90
20442;DHT22;10380;52.102;20.614;2022-07-10T03:58:35;14.90;99.90
20442;DHT22;10380;52.102;20.614;2022-07-10T04:01:02;15.00;99.90
20442;DHT22;10380;52.102;20.614;2022-07-10T04:03:29;15.00;99.90
20442;DHT22;10380;52.102;20.614;2022-07-10T04:05:56;15.00;99.90
20442;DHT22;10380;52.102;20.614;2022-07-10T04:08:23;15.00;99.90
20442;DHT22;10380;52.102;20.614;2022-07-10T04:10:52;14.90;99.90
20442;DHT22;10380;52.102;20.614;2022-07-10T04:13:19;14.90;99.90
20442;DHT22;10380;52.102;20.614;2022-07-10T04:15:45;14.90;99.90
20442;DHT22;10380;52.102;20.614;2022-07-10T04:18:13;15.00;99.90
20442;DHT22;10380;52.102;20.614;2022-07-10T04:20:40;15.00;99.90
20442;DHT22;10380;52.102;20.614;2022-07-10T04:23:07;15.00;99.90
20442;DHT22;10380;52.102;20.614;2022-07-10T04:25:33;15.00;99.90
20442;DHT22;10380;52.102;20.614;2022-07-10T04:28:00;14.90;99.90
20442;DHT22;10380;52.102;20.614;2022-07-10T04:30:27;14.90;99.90
20442;DHT22;10380;52.102;20.614;2022-07-10T04:32:54;14.90;99.90
20442;DHT22;10380;52.102;20.614;2022-07-10T04:35:21;15.00;99.90
20442;DHT22;10380;52.102;20.614;2022-07-10T04:37:48;15.00;99.90
20442;DHT22;10380;52.102;20.614;2022-07-10T04:40:15;15.10;99.90
20442;DHT22;10380;52.102;20.614;2022-07-10T04:42:42;15.10;99.90
20442;DHT22;10380;52.102;20.614;2022-07-10T04:45:09;15.20;99.90
20442;DHT22;10380;52.102;20.614;2022-07-10T04:47:37;15.20;99.90
20442;DHT22;10380;52.102;20.614;2022-07-10T04:50:05;15.30;99.90
20442;DHT22;10380;52.102;20.614;2022-07-10T04:52:32;15.50;99.90
20442;DHT22;10380;52.102;20.614;2022-07-10T04:54:59;15.60;99.90
20442;DHT22;10380;52.102;20.614;2022-07-10T04:57:26;15.70;99.90
20442;DHT22;10380;52.102;20.614;2022-07-10T04:59:54;15.70;99.90
20442;DHT22;10380;52.102;20.614;2022-07-10T05:02:29;15.70;99.90
20442;DHT22;10380;52.102;20.614;2022-07-10T05:04:57;15.70;99.90
20442;DHT22;10380;52.102;20.614;2022-07-10T05:07:30;15.70;99.90
20442;DHT22;10380;52.102;20.614;2022-07-10T05:09:59;15.70;99.90
20442;DHT22;10380;52.102;20.614;2022-07-10T05:12:26;15.70;99.90
20442;DHT22;10380;52.102;20.614;2022-07-10T05:14:53;15.70;99.90
20442;DHT22;10380;52.102;20.614;2022-07-10T05:17:21;15.70;99.90
20442;DHT22;10380;52.102;20.614;2022-07-10T05:19:49;15.70;99.90
20442;DHT22;10380;52.102;20.614;2022-07-10T05:22:19;15.70;99.90
20442;DHT22;10380;52.102;20.614;2022-07-10T05:24:47;15.70;99.90
20442;DHT22;10380;52.102;20.614;2022-07-10T05:27:15;15.70;99.90
20442;DHT22;10380;52.102;20.614;2022-07-10T05:29:47;15.70;99.90
20442;DHT22;10380;52.102;20.614;2022-07-10T05:32:14;15.70;99.90
20442;DHT22;10380;52.102;20.614;2022-07-10T05:34:47;15.80;99.90
20442;DHT22;10380;52.102;20.614;2022-07-10T05:37:14;15.80;99.90
20442;DHT22;10380;52.102;20.614;2022-07-10T05:39:43;15.80;99.90
20442;DHT22;10380;52.102;20.614;2022-07-10T05:42:12;15.80;99.90
20442;DHT22;10380;52.102;20.614;2022-07-10T05:44:39;15.80;99.90
20442;DHT22;10380;52.102;20.614;2022-07-10T05:47:06;15.70;99.90
20442;DHT22;10380;52.102;20.614;2022-07-10T05:49:35;15.70;99.90
20442;DHT22;10380;52.102;20.614;2022-07-10T05:52:02;15.70;99.90
20442;DHT22;10380;52.102;20.614;2022-07-10T05:54:31;15.60;99.90
20442;DHT22;10380;52.102;20.614;2022-07-10T05:57:00;15.60;99.90
20442;DHT22;10380;52.102;20.614;2022-07-10T05:59:27;15.60;99.90
20442;DHT22;10380;52.102;20.614;2022-07-10T06:01:54;15.60;99.90
20442;DHT22;10380;52.102;20.614;2022-07-10T06:04:23;15.60;99.90
20442;DHT22;10380;52.102;20.614;2022-07-10T06:06:50;15.60;99.90
20442;DHT22;10380;52.102;20.614;2022-07-10T06:09:19;15.60;99.90
20442;DHT22;10380;52.102;20.614;2022-07-10T06:11:47;15.60;99.90
20442;DHT22;10380;52.102;20.614;2022-07-10T06:14:17;15.60;99.90
20442;DHT22;10380;52.102;20.614;2022-07-10T06:16:44;15.60;99.90
20442;DHT22;10380;52.102;20.614;2022-07-10T06:19:11;15.60;99.90
20442;DHT22;10380;52.102;20.614;2022-07-10T06:21:39;15.70;99.90
20442;DHT22;10380;52.102;20.614;2022-07-10T06:24:05;15.70;99.90
20442;DHT22;10380;52.102;20.614;2022-07-10T06:26:32;15.80;99.90
20442;DHT22;10380;52.102;20.614;2022-07-10T06:28:59;16.00;99.90
20442;DHT22;10380;52.102;20.614;2022-07-10T06:31:26;16.10;99.90
20442;DHT22;10380;52.102;20.614;2022-07-10T06:33:54;16.30;99.90
20442;DHT22;10380;52.102;20.614;2022-07-10T06:36:20;16.50;99.90
20442;DHT22;10380;52.102;20.614;2022-07-10T06:38:51;16.60;99.90
20442;DHT22;10380;52.102;20.614;2022-07-10T06:41:18;16.80;99.90
20442;DHT22;10380;52.102;20.614;2022-07-10T06:43:45;16.90;99.90
20442;DHT22;10380;52.102;20.614;2022-07-10T06:46:12;17.10;99.90
20442;DHT22;10380;52.102;20.614;2022-07-10T06:48:39;17.30;99.90
20442;DHT22;10380;52.102;20.614;2022-07-10T06:51:07;17.40;99.90
20442;DHT22;10380;52.102;20.614;2022-07-10T06:53:38;17.40;99.90
20442;DHT22;10380;52.102;20.614;2022-07-10T06:56:06;17.50;99.90
20442;DHT22;10380;52.102;20.614;2022-07-10T06:58:33;17.60;99.90
20442;DHT22;10380;52.102;20.614;2022-07-10T07:01:00;17.70;99.90
20442;DHT22;10380;52.102;20.614;2022-07-10T07:03:27;17.70;99.90
20442;DHT22;10380;52.102;20.614;2022-07-10T07:05:54;17.70;99.90
20442;DHT22;10380;52.102;20.614;2022-07-10T07:08:21;17.70;99.90
20442;DHT22;10380;52.102;20.614;2022-07-10T07:10:48;17.80;99.90
20442;DHT22;10380;52.102;20.614;2022-07-10T07:13:16;17.80;99.90
20442;DHT22;10380;52.102;20.614;2022-07-10T07:15:44;17.90;99.90
20442;DHT22;10380;52.102;20.614;2022-07-10T07:18:19;18.00;99.90
20442;DHT22;10380;52.102;20.614;2022-07-10T07:20:48;18.00;99.90
20442;DHT22;10380;52.102;20.614;2022-07-10T07:23:33;18.10;99.90
20442;DHT22;10380;52.102;20.614;2022-07-10T07:26:00;18.10;99.90
20442;DHT22;10380;52.102;20.614;2022-07-10T07:28:27;18.10;99.90
20442;DHT22;10380;52.102;20.614;2022-07-10T07:30:54;18.10;99.90
20442;DHT22;10380;52.102;20.614;2022-07-10T07:33:21;18.20;99.90
20442;DHT22;10380;52.102;20.614;2022-07-10T07:35:47;18.20;99.90
20442;DHT22;10380;52.102;20.614;2022-07-10T07:38:14;18.20;99.90
20442;DHT22;10380;52.102;20.614;2022-07-10T07:40:42;18.20;99.90
20442;DHT22;10380;52.102;20.614;2022-07-10T07:43:09;18.10;99.90
20442;DHT22;10380;52.102;20.614;2022-07-10T07:45:37;18.00;99.90
20442;DHT22;10380;52.102;20.614;2022-07-10T07:48:04;18.00;99.90
20442;DHT22;10380;52.102;20.614;2022-07-10T07:50:32;18.00;99.90
20442;DHT22;10380;52.102;20.614;2022-07-10T07:53:00;17.90;99.90
20442;DHT22;10380;52.102;20.614;2022-07-10T07:55:28;17.90;99.90
20442;DHT22;10380;52.102;20.614;2022-07-10T07:57:56;17.90;99.90
20442;DHT22;10380;52.102;20.614;2022-07-10T08:00:26;17.90;99.90
20442;DHT22;10380;52.102;20.614;2022-07-10T08:02:56;18.00;99.90
20442;DHT22;10380;52.102;20.614;2022-07-10T08:05:26;18.20;99.90
20442;DHT22;10380;52.102;20.614;2022-07-10T08:08:01;18.40;99.90
20442;DHT22;10380;52.102;20.614;2022-07-10T08:10:32;18.60;99.90
20442;DHT22;10380;52.102;20.614;2022-07-10T08:13:02;18.70;99.90
20442;DHT22;10380;52.102;20.614;2022-07-10T08:15:37;18.60;99.90
20442;DHT22;10380;52.102;20.614;2022-07-10T08:18:07;18.30;99.90
20442;DHT22;10380;52.102;20.614;2022-07-10T08:20:36;18.10;99.90
20442;DHT22;10380;52.102;20.614;2022-07-10T08:23:03;18.00;99.90
20442;DHT22;10380;52.102;20.614;2022-07-10T08:25:30;18.00;99.90
20442;DHT22;10380;52.102;20.614;2022-07-10T08:28:03;18.10;99.90
20442;DHT22;10380;52.102;20.614;2022-07-10T08:30:32;18.10;99.90
20442;DHT22;10380;52.102;20.614;2022-07-10T08:32:59;18.00;99.90
20442;DHT22;10380;52.102;20.614;2022-07-10T08:35:26;18.00;99.90
20442;DHT22;10380;52.102;20.614;2022-07-10T08:37:53;17.90;99.90
20442;DHT22;10380;52.102;20.614;2022-07-10T08:40:21;17.70;99.90
20442;DHT22;10380;52.102;20.614;2022-07-10T08:42:49;17.60;99.90
20442;DHT22;10380;52.102;20.614;2022-07-10T08:45:15;17.40;99.90
20442;DHT22;10380;52.102;20.614;2022-07-10T08:47:43;17.30;99.90
20442;DHT22;10380;52.102;20.614;2022-07-10T08:50:16;17.30;99.90
20442;DHT22;10380;52.102;20.614;2022-07-10T08:52:53;17.20;99.90
20442;DHT22;10380;52.102;20.614;2022-07-10T08:55:26;17.30;99.90
20442;DHT22;10380;52.102;20.614;2022-07-10T08:57:59;17.40;99.90
20442;DHT22;10380;52.102;20.614;2022-07-10T09:00:27;17.50;99.90
20442;DHT22;10380;52.102;20.614;2022-07-10T09:02:55;17.70;99.90
20442;DHT22;10380;52.102;20.614;2022-07-10T09:05:29;17.90;99.90
20442;DHT22;10380;52.102;20.614;2022-07-10T09:07:58;18.10;99.90
20442;DHT22;10380;52.102;20.614;2022-07-10T09:10:28;18.20;99.90
20442;DHT22;10380;52.102;20.614;2022-07-10T09:13:00;18.20;99.90
20442;DHT22;10380;52.102;20.614;2022-07-10T09:15:31;18.10;99.90
20442;DHT22;10380;52.102;20.614;2022-07-10T09:18:04;17.90;99.90
20442;DHT22;10380;52.102;20.614;2022-07-10T09:20:39;17.80;99.90
20442;DHT22;10380;52.102;20.614;2022-07-10T09:23:21;17.80;99.90
20442;DHT22;10380;52.102;20.614;2022-07-10T09:25:55;17.70;99.90
20442;DHT22;10380;52.102;20.614;2022-07-10T09:28:23;17.70;99.90
20442;DHT22;10380;52.102;20.614;2022-07-10T09:30:57;17.80;99.90
20442;DHT22;10380;52.102;20.614;2022-07-10T09:33:27;18.00;99.90
20442;DHT22;10380;52.102;20.614;2022-07-10T09:36:00;18.30;99.90
20442;DHT22;10380;52.102;20.614;2022-07-10T09:41:22;18.80;99.90
20442;DHT22;10380;52.102;20.614;2022-07-10T09:46:41;19.00;99.90
20442;DHT22;10380;52.102;20.614;2022-07-10T09:49:12;19.10;99.90
20442;DHT22;10380;52.102;20.614;2022-07-10T09:51:46;19.30;99.90
20442;DHT22;10380;52.102;20.614;2022-07-10T09:54:15;19.30;99.90
20442;DHT22;10380;52.102;20.614;2022-07-10T09:56:47;19.30;99.90
20442;DHT22;10380;52.102;20.614;2022-07-10T09:59:20;19.30;99.90
20442;DHT22;10380;52.102;20.614;2022-07-10T10:01:50;19.10;99.90
20442;DHT22;10380;52.102;20.614;2022-07-10T10:04:21;19.00;99.90
20442;DHT22;10380;52.102;20.614;2022-07-10T10:06:52;18.80;99.90
20442;DHT22;10380;52.102;20.614;2022-07-10T10:09:51;18.90;99.90
20442;DHT22;10380;52.102;20.614;2022-07-10T10:15:23;18.70;99.90
20442;DHT22;10380;52.102;20.614;2022-07-10T10:17:54;18.60;99.90
20442;DHT22;10380;52.102;20.614;2022-07-10T10:20:24;18.50;99.90
20442;DHT22;10380;52.102;20.614;2022-07-10T10:23:12;18.40;99.90
20442;DHT22;10380;52.102;20.614;2022-07-10T10:25:40;18.50;99.90
20442;DHT22;10380;52.102;20.614;2022-07-10T10:28:10;18.60;99.90
20442;DHT22;10380;52.102;20.614;2022-07-10T10:30:44;18.60;99.90
20442;DHT22;10380;52.102;20.614;2022-07-10T10:36:15;18.50;99.90
20442;DHT22;10380;52.102;20.614;2022-07-10T10:39:12;18.50;99.90
20442;DHT22;10380;52.102;20.614;2022-07-10T10:41:41;18.50;99.90
20442;DHT22;10380;52.102;20.614;2022-07-10T10:52:26;18.60;99.90
20442;DHT22;10380;52.102;20.614;2022-07-10T10:57:35;18.70;99.90
20442;DHT22;10380;52.102;20.614;2022-07-10T11:00:04;18.70;99.90
20442;DHT22;10380;52.102;20.614;2022-07-10T11:02:38;18.80;99.90
20442;DHT22;10380;52.102;20.614;2022-07-10T11:07:54;19.10;99.90
20442;DHT22;10380;52.102;20.614;2022-07-10T11:10:43;19.10;99.90
20442;DHT22;10380;52.102;20.614;2022-07-10T11:13:16;19.20;99.90
20442;DHT22;10380;52.102;20.614;2022-07-10T11:15:45;19.00;99.90
20442;DHT22;10380;52.102;20.614;2022-07-10T11:18:21;18.70;99.90
20442;DHT22;10380;52.102;20.614;2022-07-10T11:21:02;18.40;99.90
20442;DHT22;10380;52.102;20.614;2022-07-10T11:23:56;17.90;99.90
20442;DHT22;10380;52.102;20.614;2022-07-10T11:26:58;17.60;99.90
20442;DHT22;10380;52.102;20.614;2022-07-10T11:29:36;17.40;99.90
20442;DHT22;10380;52.102;20.614;2022-07-10T11:32:03;17.20;99.90
20442;DHT22;10380;52.102;20.614;2022-07-10T11:34:36;17.00;99.90
20442;DHT22;10380;52.102;20.614;2022-07-10T11:37:14;16.90;99.90
20442;DHT22;10380;52.102;20.614;2022-07-10T11:39:42;16.90;99.90
20442;DHT22;10380;52.102;20.614;2022-07-10T11:42:10;17.00;99.90
20442;DHT22;10380;52.102;20.614;2022-07-10T11:44:37;17.20;99.90
20442;DHT22;10380;52.102;20.614;2022-07-10T11:47:07;17.50;99.90
20442;DHT22;10380;52.102;20.614;2022-07-10T11:49:44;17.70;99.90
20442;DHT22;10380;52.102;20.614;2022-07-10T11:52:11;18.00;99.90
20442;DHT22;10380;52.102;20.614;2022-07-10T11:54:39;18.30;99.90
20442;DHT22;10380;52.102;20.614;2022-07-10T11:57:10;18.60;99.90
20442;DHT22;10380;52.102;20.614;2022-07-10T11:59:37;18.90;99.90
20442;DHT22;10380;52.102;20.614;2022-07-10T12:02:05;19.20;99.90
20442;DHT22;10380;52.102;20.614;2022-07-10T12:04:33;19.40;99.90
20442;DHT22;10380;52.102;20.614;2022-07-10T12:07:00;19.60;99.90
20442;DHT22;10380;52.102;20.614;2022-07-10T12:09:28;19.90;99.90
20442;DHT22;10380;52.102;20.614;2022-07-10T12:12:05;20.00;99.90
20442;DHT22;10380;52.102;20.614;2022-07-10T12:14:33;20.20;99.90
20442;DHT22;10380;52.102;20.614;2022-07-10T12:17:10;21.00;99.90
20442;DHT22;10380;52.102;20.614;2022-07-10T12:19:39;22.00;99.90
20442;DHT22;10380;52.102;20.614;2022-07-10T12:22:06;23.00;99.90
20442;DHT22;10380;52.102;20.614;2022-07-10T12:24:34;23.50;99.90
20442;DHT22;10380;52.102;20.614;2022-07-10T12:27:02;23.70;99.90
20442;DHT22;10380;52.102;20.614;2022-07-10T12:29:29;23.80;99.90
20442;DHT22;10380;52.102;20.614;2022-07-10T12:31:58;23.30;99.90
20442;DHT22;10380;52.102;20.614;2022-07-10T12:34:38;22.40;99.90
20442;DHT22;10380;52.102;20.614;2022-07-10T12:37:11;21.70;99.90
20442;DHT22;10380;52.102;20.614;2022-07-10T12:39:47;21.10;99.90
20442;DHT22;10380;52.102;20.614;2022-07-10T12:42:28;20.80;99.90
20442;DHT22;10380;52.102;20.614;2022-07-10T12:45:12;20.70;99.90
20442;DHT22;10380;52.102;20.614;2022-07-10T12:47:47;20.50;99.90
20442;DHT22;10380;52.102;20.614;2022-07-10T12:50:15;20.50;99.90
20442;DHT22;10380;52.102;20.614;2022-07-10T12:52:47;20.60;99.90
20442;DHT22;10380;52.102;20.614;2022-07-10T12:55:21;20.70;99.90
20442;DHT22;10380;52.102;20.614;2022-07-10T12:57:57;20.70;99.90
20442;DHT22;10380;52.102;20.614;2022-07-10T13:00:31;20.90;99.90
20442;DHT22;10380;52.102;20.614;2022-07-10T13:03:04;21.10;99.90
20442;DHT22;10380;52.102;20.614;2022-07-10T13:08:15;21.10;99.90
20442;DHT22;10380;52.102;20.614;2022-07-10T13:10:56;21.00;99.90
20442;DHT22;10380;52.102;20.614;2022-07-10T13:13:25;20.70;99.90
20442;DHT22;10380;52.102;20.614;2022-07-10T13:15:52;20.30;99.90
20442;DHT22;10380;52.102;20.614;2022-07-10T13:18:27;20.10;99.90
20442;DHT22;10380;52.102;20.614;2022-07-10T13:20:56;20.30;99.90
20442;DHT22;10380;52.102;20.614;2022-07-10T13:23:28;20.70;99.90
20442;DHT22;10380;52.102;20.614;2022-07-10T13:25:55;21.20;99.90
20442;DHT22;10380;52.102;20.614;2022-07-10T13:28:22;21.90;99.90
20442;DHT22;10380;52.102;20.614;2022-07-10T13:30:49;22.70;99.90
20442;DHT22;10380;52.102;20.614;2022-07-10T13:33:16;23.50;99.90
20442;DHT22;10380;52.102;20.614;2022-07-10T13:35:44;24.30;99.90
20442;DHT22;10380;52.102;20.614;2022-07-10T13:38:11;25.20;99.90
20442;DHT22;10380;52.102;20.614;2022-07-10T13:40:43;25.60;99.90
20442;DHT22;10380;52.102;20.614;2022-07-10T13:43:11;25.50;99.90
20442;DHT22;10380;52.102;20.614;2022-07-10T13:45:39;25.20;99.90
20442;DHT22;10380;52.102;20.614;2022-07-10T13:48:16;25.10;99.90
20442;DHT22;10380;52.102;20.614;2022-07-10T13:50:44;24.90;99.90
20442;DHT22;10380;52.102;20.614;2022-07-10T13:53:13;24.00;99.90
20442;DHT22;10380;52.102;20.614;2022-07-10T13:55:41;22.60;99.90
20442;DHT22;10380;52.102;20.614;2022-07-10T13:58:13;21.30;99.90
20442;DHT22;10380;52.102;20.614;2022-07-10T14:00:40;20.10;99.90
20442;DHT22;10380;52.102;20.614;2022-07-10T14:03:10;18.70;99.90
20442;DHT22;10380;52.102;20.614;2022-07-10T14:05:37;17.40;99.90
20442;DHT22;10380;52.102;20.614;2022-07-10T14:08:07;16.50;99.90
20442;DHT22;10380;52.102;20.614;2022-07-10T14:10:34;15.90;99.90
20442;DHT22;10380;52.102;20.614;2022-07-10T14:13:02;15.50;99.90
20442;DHT22;10380;52.102;20.614;2022-07-10T14:15:43;15.20;99.90
20442;DHT22;10380;52.102;20.614;2022-07-10T14:18:15;15.00;99.90
20442;DHT22;10380;52.102;20.614;2022-07-10T14:21:01;14.90;99.90
20442;DHT22;10380;52.102;20.614;2022-07-10T14:23:31;14.90;99.90
20442;DHT22;10380;52.102;20.614;2022-07-10T14:26:01;14.90;99.90
20442;DHT22;10380;52.102;20.614;2022-07-10T14:28:28;15.00;99.90
20442;DHT22;10380;52.102;20.614;2022-07-10T14:30:58;15.00;99.90
20442;DHT22;10380;52.102;20.614;2022-07-10T14:33:34;15.20;99.90
20442;DHT22;10380;52.102;20.614;2022-07-10T14:36:09;15.30;99.90
20442;DHT22;10380;52.102;20.614;2022-07-10T14:38:38;15.40;99.90
20442;DHT22;10380;52.102;20.614;2022-07-10T14:41:05;15.40;99.90
20442;DHT22;10380;52.102;20.614;2022-07-10T14:43:35;15.40;99.90
20442;DHT22;10380;52.102;20.614;2022-07-10T14:46:03;15.50;99.90
20442;DHT22;10380;52.102;20.614;2022-07-10T14:48:32;15.40;99.90
20442;DHT22;10380;52.102;20.614;2022-07-10T14:51:00;15.50;99.90
20442;DHT22;10380;52.102;20.614;2022-07-10T14:53:27;15.50;99.90
20442;DHT22;10380;52.102;20.614;2022-07-10T14:55:58;15.50;99.90
20442;DHT22;10380;52.102;20.614;2022-07-10T14:58:28;15.50;99.90
20442;DHT22;10380;52.102;20.614;2022-07-10T15:00:57;15.50;99.90
20442;DHT22;10380;52.102;20.614;2022-07-10T15:03:24;15.50;99.90
20442;DHT22;10380;52.102;20.614;2022-07-10T15:05:52;15.50;99.90
20442;DHT22;10380;52.102;20.614;2022-07-10T15:08:26;15.50;99.90
20442;DHT22;10380;52.102;20.614;2022-07-10T15:10:55;15.50;99.90
20442;DHT22;10380;52.102;20.614;2022-07-10T15:13:22;15.50;99.90
20442;DHT22;10380;52.102;20.614;2022-07-10T15:15:49;15.50;99.90
20442;DHT22;10380;52.102;20.614;2022-07-10T15:18:19;15.60;99.90
20442;DHT22;10380;52.102;20.614;2022-07-10T15:20:47;15.70;99.90
20442;DHT22;10380;52.102;20.614;2022-07-10T15:23:16;15.80;99.90
20442;DHT22;10380;52.102;20.614;2022-07-10T15:25:46;16.00;99.90
20442;DHT22;10380;52.102;20.614;2022-07-10T15:28:18;16.20;99.90
20442;DHT22;10380;52.102;20.614;2022-07-10T15:30:51;16.30;99.90
20442;DHT22;10380;52.102;20.614;2022-07-10T15:33:25;16.50;99.90
20442;DHT22;10380;52.102;20.614;2022-07-10T15:35:52;16.90;99.90
20442;DHT22;10380;52.102;20.614;2022-07-10T15:38:19;17.20;99.90
20442;DHT22;10380;52.102;20.614;2022-07-10T15:40:47;17.50;99.90
20442;DHT22;10380;52.102;20.614;2022-07-10T15:43:16;17.60;99.90
20442;DHT22;10380;52.102;20.614;2022-07-10T15:45:46;17.40;99.90
20442;DHT22;10380;52.102;20.614;2022-07-10T15:48:13;17.10;99.90
20442;DHT22;10380;52.102;20.614;2022-07-10T15:50:41;16.80;99.90
20442;DHT22;10380;52.102;20.614;2022-07-10T15:53:09;16.40;99.90
20442;DHT22;10380;52.102;20.614;2022-07-10T15:55:36;16.10;99.90
20442;DHT22;10380;52.102;20.614;2022-07-10T15:58:02;15.70;99.90